Time;durP1;ratioP1;P1;durP2;ratioP2;P2;SDS_P1;SDS_P2;PMS_P1;PMS_P2;Temp;Humidity;BMP_temperature;BMP_pressure;BME280_temperature;BME280_humidity;BME280_pressure;Samples;Min_cycle;Max_cycle;Signal;HPM_P1;HPM_P2
2020/12/28 00:00:25;;;;;;;35.20;8.63;;;26.20;99.90;;;;;;4952599;28;20473;-84
2020/12/28 00:02:52;;;;;;;35.80;8.13;;;25.80;99.90;;;;;;4970471;23;20065;-83
2020/12/28 00:05:21;;;;;;;36.67;7.88;;;25.60;99.90;;;;;;4974164;28;20031;-83
2020/12/28 00:07:50;;;;;;;37.33;7.72;;;25.40;99.90;;;;;;4957846;28;20037;-84
2020/12/28 00:10:18;;;;;;;35.92;8.98;;;25.30;99.90;;;;;;4976156;28;20026;-84
2020/12/28 00:12:49;;;;;;;38.17;10.68;;;25.40;99.90;;;;;;4973993;28;20097;-89
2020/12/28 00:15:26;;;;;;;43.03;9.20;;;25.60;99.90;;;;;;4975924;28;20554;-81
2020/12/28 00:17:58;;;;;;;33.03;8.07;;;25.60;99.90;;;;;;4962870;28;20115;-84
2020/12/28 00:20:27;;;;;;;40.85;9.43;;;25.80;99.90;;;;;;4946576;28;20031;-82
2020/12/28 00:22:54;;;;;;;42.40;9.18;;;25.70;99.90;;;;;;4950786;28;20035;-85
2020/12/28 00:25:24;;;;;;;35.03;8.25;;;25.80;99.90;;;;;;4958392;28;20030;-84
2020/12/28 00:27:52;;;;;;;39.85;9.10;;;26.00;99.90;;;;;;4973362;28;20027;-82
2020/12/28 00:30:20;;;;;;;49.75;10.10;;;25.80;99.90;;;;;;4958549;28;20451;-87
2020/12/28 00:32:47;;;;;;;43.25;8.32;;;25.40;99.90;;;;;;4973657;28;20034;-79
2020/12/28 00:35:15;;;;;;;37.17;7.40;;;24.70;99.90;;;;;;4992563;23;20054;-78
2020/12/28 00:37:42;;;;;;;39.05;9.57;;;25.20;99.90;;;;;;4955306;28;20046;-77
2020/12/28 00:40:10;;;;;;;40.30;9.48;;;25.50;99.90;;;;;;4985133;28;20022;-80
2020/12/28 00:42:38;;;;;;;44.55;9.52;;;26.00;99.90;;;;;;4979743;28;20369;-84
2020/12/28 00:45:11;;;;;;;40.67;7.93;;;26.10;99.90;;;;;;4967650;28;20084;-82
2020/12/28 00:47:38;;;;;;;50.92;9.27;;;26.10;99.90;;;;;;4971539;28;20097;-84
2020/12/28 00:50:06;;;;;;;37.08;7.63;;;26.00;99.90;;;;;;4975725;28;20031;-86
2020/12/28 00:52:34;;;;;;;31.42;7.57;;;26.20;99.90;;;;;;4973586;28;20110;-82
2020/12/28 00:55:01;;;;;;;32.47;7.05;;;25.80;99.90;;;;;;4972715;28;20031;-85
2020/12/28 00:57:28;;;;;;;40.30;8.95;;;25.90;99.90;;;;;;4974123;28;20027;-83
2020/12/28 00:59:57;;;;;;;32.47;6.50;;;26.20;99.90;;;;;;4975944;28;20031;-84
2020/12/28 01:02:24;;;;;;;35.10;8.02;;;26.00;99.90;;;;;;4973547;28;20540;-88
2020/12/28 01:04:51;;;;;;;35.47;6.53;;;25.70;99.90;;;;;;4973461;28;20495;-87
2020/12/28 01:07:19;;;;;;;36.08;7.57;;;25.20;99.90;;;;;;4957039;28;20034;-85
2020/12/28 01:09:46;;;;;;;27.13;7.00;;;25.40;99.90;;;;;;4975573;28;20031;-87
2020/12/28 01:12:13;;;;;;;38.22;7.85;;;25.90;99.90;;;;;;4973163;28;20477;-84
2020/12/28 01:14:41;;;;;;;28.20;6.70;;;25.70;99.90;;;;;;4975054;28;20034;-86
2020/12/28 01:17:08;;;;;;;26.80;6.32;;;26.00;99.90;;;;;;4972929;28;20041;-87
2020/12/28 01:19:35;;;;;;;32.03;7.07;;;26.40;99.90;;;;;;4957836;28;20031;-87
2020/12/28 01:22:02;;;;;;;35.50;6.78;;;25.90;99.90;;;;;;4973995;28;20026;-86
2020/12/28 01:24:30;;;;;;;43.42;7.57;;;25.70;99.90;;;;;;4958339;28;20078;-90
2020/12/28 01:26:58;;;;;;;33.35;6.95;;;25.80;99.90;;;;;;4973235;28;20484;-89
2020/12/28 01:29:25;;;;;;;32.15;7.45;;;26.10;99.90;;;;;;4975249;28;20580;-88
2020/12/28 01:31:52;;;;;;;30.20;6.68;;;26.30;99.90;;;;;;4969921;28;20126;-88
2020/12/28 01:34:21;;;;;;;23.65;5.10;;;26.30;99.90;;;;;;4968520;28;20546;-90
2020/12/28 01:36:48;;;;;;;30.85;5.75;;;26.00;99.90;;;;;;4976383;23;20047;-89
2020/12/28 01:39:16;;;;;;;31.98;6.80;;;25.90;99.90;;;;;;4966235;23;20057;-85
2020/12/28 01:41:43;;;;;;;24.90;6.25;;;25.90;99.90;;;;;;4990051;23;20058;-91
2020/12/28 01:44:10;;;;;;;31.15;6.32;;;26.10;99.90;;;;;;4982053;23;20013;-85
2020/12/28 01:46:38;;;;;;;29.60;6.57;;;26.10;99.90;;;;;;4972787;28;20035;-89
2020/12/28 01:49:05;;;;;;;23.70;5.53;;;26.00;99.90;;;;;;4974775;28;20027;-85
2020/12/28 01:51:33;;;;;;;28.85;6.25;;;26.20;99.90;;;;;;4972752;28;20015;-85
2020/12/28 01:54:01;;;;;;;22.15;4.70;;;26.20;99.90;;;;;;4990607;23;20062;-89
2020/12/28 01:56:28;;;;;;;26.15;5.65;;;26.10;99.90;;;;;;4972580;28;20074;-91
2020/12/28 01:58:56;;;;;;;27.83;6.78;;;26.10;99.90;;;;;;4974650;28;20027;-86
2020/12/28 02:01:26;;;;;;;29.65;6.60;;;25.60;99.90;;;;;;4955169;28;20054;-86
2020/12/28 02:03:55;;;;;;;25.70;5.47;;;25.20;99.90;;;;;;4955946;28;20039;-85
2020/12/28 02:06:22;;;;;;;35.88;5.88;;;24.60;99.90;;;;;;4971451;28;20388;-87
2020/12/28 02:08:49;;;;;;;36.92;6.72;;;24.40;99.90;;;;;;4955247;28;20194;-85
2020/12/28 02:11:17;;;;;;;32.30;6.25;;;24.10;99.90;;;;;;5005281;23;20058;-86
2020/12/28 02:13:44;;;;;;;34.45;7.25;;;24.10;99.90;;;;;;4975812;28;20038;-82
2020/12/28 02:16:11;;;;;;;32.63;7.28;;;23.60;99.90;;;;;;4994004;28;20541;-88
2020/12/28 02:18:39;;;;;;;34.38;7.00;;;24.20;99.90;;;;;;4975566;28;20545;-88
2020/12/28 02:21:06;;;;;;;31.13;6.63;;;24.20;99.90;;;;;;4993837;28;20018;-86
2020/12/28 02:23:33;;;;;;;32.10;5.65;;;23.90;99.90;;;;;;4974612;28;20026;-84
2020/12/28 02:26:01;;;;;;;31.00;5.43;;;24.10;99.90;;;;;;4973768;28;20126;-86
2020/12/28 02:28:28;;;;;;;28.13;5.63;;;24.50;99.90;;;;;;4974377;28;20026;-80
2020/12/28 02:30:55;;;;;;;38.40;7.00;;;24.00;99.90;;;;;;4974455;28;20057;-89
2020/12/28 02:33:22;;;;;;;36.47;5.95;;;23.70;99.90;;;;;;4972267;28;20027;-84
2020/12/28 02:35:50;;;;;;;34.20;5.75;;;24.50;99.90;;;;;;4993307;28;20034;-88
2020/12/28 02:38:17;;;;;;;31.88;6.60;;;24.30;99.90;;;;;;4975972;28;20030;-85
2020/12/28 02:40:44;;;;;;;31.58;5.53;;;23.70;99.90;;;;;;4973803;28;20039;-85
2020/12/28 02:43:11;;;;;;;35.63;7.50;;;23.40;99.90;;;;;;4990241;23;20054;-81
2020/12/28 02:45:39;;;;;;;32.88;5.97;;;23.20;99.90;;;;;;4972690;28;20070;-85
2020/12/28 02:48:06;;;;;;;31.52;5.72;;;23.00;99.90;;;;;;4970230;28;20030;-84
2020/12/28 02:50:33;;;;;;;36.67;7.40;;;23.30;99.90;;;;;;4973938;28;20090;-89
2020/12/28 02:53:01;;;;;;;28.88;6.18;;;22.90;99.90;;;;;;4971717;28;20023;-88
2020/12/28 02:55:28;;;;;;;39.50;7.47;;;22.80;99.90;;;;;;4973634;28;20110;-86
2020/12/28 02:57:55;;;;;;;29.88;6.25;;;22.70;99.90;;;;;;4955488;28;20038;-90
2020/12/28 03:00:22;;;;;;;34.92;7.10;;;22.50;99.90;;;;;;4973707;28;20107;-84
2020/12/28 03:02:50;;;;;;;26.42;5.88;;;22.50;99.90;;;;;;4969832;28;20026;-86
2020/12/28 03:05:17;;;;;;;36.67;5.82;;;22.30;99.90;;;;;;4955846;28;20041;-85
2020/12/28 03:07:44;;;;;;;40.30;6.70;;;22.10;99.90;;;;;;4971475;28;20035;-86
2020/12/28 03:10:11;;;;;;;31.77;6.32;;;22.00;99.90;;;;;;4956490;28;20483;-85
2020/12/28 03:12:39;;;;;;;31.95;5.90;;;22.10;99.90;;;;;;4971515;28;20031;-89
2020/12/28 03:15:06;;;;;;;40.80;7.75;;;22.40;99.90;;;;;;4973951;28;20106;-82
2020/12/28 03:17:33;;;;;;;25.23;5.05;;;22.40;99.90;;;;;;4970520;28;20050;-86
2020/12/28 03:20:00;;;;;;;29.20;5.20;;;22.50;99.90;;;;;;4973558;28;20102;-84
2020/12/28 03:22:28;;;;;;;27.85;5.00;;;22.30;99.90;;;;;;4968710;28;20026;-82
2020/12/28 03:24:55;;;;;;;32.67;6.00;;;22.10;99.90;;;;;;4967093;28;20058;-85
2020/12/28 03:27:22;;;;;;;43.90;8.27;;;22.00;99.90;;;;;;4971145;28;20025;-84
2020/12/28 03:29:49;;;;;;;28.98;6.00;;;21.90;99.90;;;;;;4973222;28;20027;-83
2020/12/28 03:32:17;;;;;;;36.58;6.47;;;21.90;99.90;;;;;;4970977;28;20516;-86
2020/12/28 03:34:44;;;;;;;31.17;4.95;;;21.80;99.90;;;;;;4973697;28;20031;-86
2020/12/28 03:37:11;;;;;;;36.20;5.43;;;21.90;99.90;;;;;;4970784;28;20060;-89
2020/12/28 03:39:39;;;;;;;27.60;5.93;;;21.80;99.90;;;;;;4973104;28;20043;-86
2020/12/28 03:42:06;;;;;;;37.58;7.22;;;21.80;99.90;;;;;;4971244;28;20023;-88
2020/12/28 03:44:33;;;;;;;31.95;5.57;;;21.80;99.90;;;;;;5007273;23;20511;-85
2020/12/28 03:47:00;;;;;;;35.78;5.93;;;21.80;99.90;;;;;;4965986;23;20058;-86
2020/12/28 03:49:28;;;;;;;35.08;6.95;;;21.50;99.90;;;;;;4992474;28;20030;-84
2020/12/28 03:51:55;;;;;;;38.33;6.00;;;21.40;99.90;;;;;;5000634;23;20523;-89
2020/12/28 03:54:22;;;;;;;42.03;7.55;;;21.40;99.90;;;;;;4973116;28;20476;-87
2020/12/28 03:56:49;;;;;;;43.42;6.38;;;21.30;99.90;;;;;;4970924;28;20073;-83
2020/12/28 03:59:17;;;;;;;36.20;6.93;;;21.20;99.90;;;;;;4973005;28;20029;-86
2020/12/28 04:01:44;;;;;;;37.63;7.03;;;21.40;99.90;;;;;;4973378;23;20074;-86
2020/12/28 04:04:14;;;;;;;25.05;6.20;;;21.30;99.90;;;;;;4966193;28;20503;-88
2020/12/28 04:06:41;;;;;;;38.38;7.30;;;21.40;99.90;;;;;;4952757;28;20031;-83
2020/12/28 04:09:09;;;;;;;35.47;7.65;;;21.40;99.90;;;;;;4971946;28;20031;-84
2020/12/28 04:11:36;;;;;;;29.27;5.85;;;21.40;99.90;;;;;;4943033;29;20296;-83
2020/12/28 04:14:03;;;;;;;22.63;4.05;;;21.60;99.90;;;;;;4946170;28;20035;-84
2020/12/28 04:16:30;;;;;;;35.47;6.20;;;21.70;99.90;;;;;;4953346;23;20045;-89
2020/12/28 04:18:58;;;;;;;30.08;6.85;;;21.40;99.90;;;;;;4940246;28;20047;-85
2020/12/28 04:21:25;;;;;;;38.15;6.80;;;21.50;99.90;;;;;;4946812;28;20082;-82
2020/12/28 04:23:52;;;;;;;30.83;5.93;;;21.40;99.90;;;;;;4948601;28;20023;-83
2020/12/28 04:26:19;;;;;;;38.38;6.55;;;21.40;99.90;;;;;;4947609;28;20041;-81
2020/12/28 04:28:47;;;;;;;32.85;5.60;;;21.20;99.90;;;;;;4949528;28;20038;-85
2020/12/28 04:31:17;;;;;;;30.60;5.35;;;21.00;99.90;;;;;;4947012;28;20038;-82
2020/12/28 04:33:44;;;;;;;32.70;4.95;;;20.90;99.90;;;;;;4950701;28;20046;-82
2020/12/28 04:36:12;;;;;;;30.80;6.30;;;20.90;99.90;;;;;;4945202;28;20055;-82
2020/12/28 04:38:39;;;;;;;34.75;6.30;;;20.90;99.90;;;;;;4946863;28;20040;-85
2020/12/28 04:41:07;;;;;;;30.00;6.20;;;21.00;99.90;;;;;;4949115;28;20096;-89
2020/12/28 04:43:35;;;;;;;26.67;5.70;;;21.20;99.90;;;;;;4950072;28;20019;-82
2020/12/28 04:46:06;;;;;;;34.08;7.50;;;21.10;99.90;;;;;;4950329;28;20067;-87
2020/12/28 04:48:34;;;;;;;26.90;4.65;;;21.10;99.90;;;;;;4953173;28;20519;-77
2020/12/28 04:51:02;;;;;;;26.13;5.45;;;20.90;99.90;;;;;;4970656;23;20146;-87
2020/12/28 04:53:30;;;;;;;28.58;5.85;;;21.00;99.90;;;;;;4963754;28;20027;-84
2020/12/28 04:56:00;;;;;;;32.70;5.35;;;21.00;99.90;;;;;;4971663;28;20455;-82
2020/12/28 04:58:28;;;;;;;31.85;6.47;;;20.90;99.90;;;;;;4969938;28;20049;-83
2020/12/28 05:00:59;;;;;;;23.00;4.30;;;20.70;99.90;;;;;;4971561;28;20025;-81
2020/12/28 05:03:27;;;;;;;26.92;5.55;;;20.70;99.90;;;;;;4967579;28;20074;-87
2020/12/28 05:05:55;;;;;;;26.63;5.40;;;20.80;99.90;;;;;;4951146;28;20046;-86
2020/12/28 05:08:23;;;;;;;29.17;4.80;;;20.70;99.90;;;;;;4969331;28;20086;-85
2020/12/28 05:10:52;;;;;;;31.30;5.82;;;20.70;99.90;;;;;;4954901;28;20429;-83
2020/12/28 05:13:20;;;;;;;26.45;4.18;;;20.70;99.90;;;;;;4969302;28;20030;-83
2020/12/28 05:15:57;;;;;;;40.97;5.60;;;20.60;99.90;;;;;;4965114;28;20034;-91
2020/12/28 05:18:24;;;;;;;31.02;5.13;;;20.50;99.90;;;;;;4972511;28;20103;-84
2020/12/28 05:20:52;;;;;;;26.95;5.10;;;20.40;99.90;;;;;;4957180;28;20069;-83
2020/12/28 05:23:20;;;;;;;30.52;5.18;;;20.40;99.90;;;;;;4952681;28;20026;-87
2020/12/28 05:25:50;;;;;;;23.58;5.35;;;20.40;99.90;;;;;;4971195;28;20423;-91
2020/12/28 05:28:25;;;;;;;24.27;4.65;;;20.40;99.90;;;;;;4968907;28;20039;-85
2020/12/28 05:30:53;;;;;;;35.78;7.53;;;20.40;99.90;;;;;;4974229;28;20058;-81
2020/12/28 05:33:20;;;;;;;27.00;4.82;;;20.40;99.90;;;;;;4970840;28;20109;-81
2020/12/28 05:35:48;;;;;;;25.15;5.18;;;20.50;99.90;;;;;;4973605;28;20023;-80
2020/12/28 05:38:16;;;;;;;26.00;4.57;;;20.50;99.90;;;;;;4970600;28;20038;-80
2020/12/28 05:40:43;;;;;;;20.75;3.88;;;20.50;99.90;;;;;;4970288;28;20047;-80
2020/12/28 05:43:10;;;;;;;27.08;6.18;;;20.50;99.90;;;;;;4969230;28;20078;-86
2020/12/28 05:45:46;;;;;;;23.48;4.30;;;20.40;99.90;;;;;;4972735;28;20034;-84
2020/12/28 05:48:22;;;;;;;21.42;4.47;;;20.40;99.90;;;;;;4970118;28;20035;-80
2020/12/28 05:50:58;;;;;;;31.80;5.40;;;20.30;99.90;;;;;;4983770;23;20466;-79
2020/12/28 05:53:26;;;;;;;28.42;5.60;;;20.30;99.90;;;;;;4991375;23;20065;-78
2020/12/28 05:55:54;;;;;;;31.10;5.10;;;20.20;99.90;;;;;;4990536;23;20054;-80
2020/12/28 05:58:22;;;;;;;32.72;5.38;;;20.30;99.90;;;;;;4975516;23;20211;-79
2020/12/28 06:00:50;;;;;;;24.02;4.55;;;20.20;99.90;;;;;;4952476;28;20126;-83
2020/12/28 06:03:40;;;;;;;27.45;5.57;;;20.10;99.90;;;;;;4946090;29;20029;-78
2020/12/28 06:06:11;;;;;;;27.95;5.18;;;20.10;99.90;;;;;;4954586;29;20019;-82
2020/12/28 06:08:43;;;;;;;21.25;4.38;;;20.00;99.90;;;;;;4987311;23;20467;-83
2020/12/28 06:11:13;;;;;;;26.05;5.15;;;20.00;99.90;;;;;;4981014;28;20077;-79
2020/12/28 06:13:44;;;;;;;18.33;3.65;;;19.90;99.90;;;;;;4960790;28;20031;-81
2020/12/28 06:16:21;;;;;;;28.13;4.90;;;19.80;99.90;;;;;;4973069;28;20401;-80
2020/12/28 06:18:55;;;;;;;24.88;4.05;;;19.90;99.90;;;;;;4973698;28;20033;-80
2020/12/28 06:21:22;;;;;;;;;;;19.90;99.90;;;;;;4972638;28;20019;-79
2020/12/28 06:23:51;;;;;;;20.85;4.40;;;19.90;99.90;;;;;;4981497;23;19906;-83
2020/12/28 06:26:20;;;;;;;26.58;4.18;;;19.90;99.90;;;;;;4971137;28;20065;-81
2020/12/28 06:28:47;;;;;;;24.63;3.78;;;19.90;99.90;;;;;;4972262;28;20039;-82
2020/12/28 06:31:15;;;;;;;20.88;3.97;;;19.80;99.90;;;;;;4968631;28;20369;-80
2020/12/28 06:33:49;;;;;;;24.27;4.32;;;19.80;99.90;;;;;;4972559;28;20031;-79
2020/12/28 06:36:18;;;;;;;23.17;4.15;;;19.80;99.90;;;;;;4968795;28;20046;-83
2020/12/28 06:39:03;;;;;;;28.38;4.03;;;19.80;99.90;;;;;;4973301;28;20066;-81
2020/12/28 06:41:31;;;;;;;21.83;3.83;;;19.70;99.90;;;;;;4971440;28;20023;-82
2020/12/28 06:44:02;;;;;;;16.90;3.10;;;19.70;99.90;;;;;;4965578;28;20113;-81
2020/12/28 06:46:30;;;;;;;22.35;3.72;;;19.60;99.90;;;;;;4966852;28;20031;-78
2020/12/28 06:48:59;;;;;;;17.30;3.40;;;19.60;99.90;;;;;;4967256;28;20373;-80
2020/12/28 06:51:29;;;;;;;24.10;3.85;;;19.60;99.90;;;;;;4967051;28;20503;-80
2020/12/28 06:53:57;;;;;;;19.20;3.40;;;19.50;99.90;;;;;;4972607;28;20031;-79
2020/12/28 06:56:30;;;;;;;23.90;4.38;;;19.50;99.90;;;;;;4965350;28;20109;-84
2020/12/28 06:59:01;;;;;;;20.55;3.17;;;19.30;99.90;;;;;;4960055;23;20051;-80
2020/12/28 07:01:29;;;;;;;18.02;3.42;;;19.30;99.90;;;;;;4955152;28;20111;-81
2020/12/28 07:03:57;;;;;;;18.35;3.05;;;19.20;99.90;;;;;;4956429;28;20027;-79
2020/12/28 07:06:24;;;;;;;23.38;4.55;;;19.10;99.90;;;;;;4959942;28;20038;-80
2020/12/28 07:08:51;;;;;;;22.88;3.67;;;19.10;99.90;;;;;;4972845;28;20030;-81
2020/12/28 07:11:19;;;;;;;19.35;3.05;;;18.80;99.90;;;;;;4969406;28;20015;-79
2020/12/28 07:13:47;;;;;;;17.92;2.83;;;18.70;99.90;;;;;;4953266;28;20090;-79
2020/12/28 07:16:14;;;;;;;18.70;4.28;;;18.70;99.90;;;;;;4955950;28;20031;-79
2020/12/28 07:18:42;;;;;;;16.92;3.00;;;18.80;99.90;;;;;;4953627;28;20123;-82
2020/12/28 07:21:09;;;;;;;21.13;3.80;;;18.80;99.90;;;;;;4959824;28;20015;-83
2020/12/28 07:23:37;;;;;;;25.10;3.15;;;18.70;99.90;;;;;;4972863;28;20034;-83
2020/12/28 07:26:12;;;;;;;23.65;5.18;;;18.60;99.90;;;;;;4954110;28;20031;-82
2020/12/28 07:28:41;;;;;;;23.10;3.65;;;18.40;99.90;;;;;;4962656;28;20039;-82
2020/12/28 07:31:08;;;;;;;21.35;3.83;;;18.20;99.90;;;;;;4970101;28;20062;-81
2020/12/28 07:33:48;;;;;;;21.83;4.05;;;18.20;99.90;;;;;;4972733;28;20038;-82
2020/12/28 07:36:20;;;;;;;23.65;3.53;;;18.30;99.90;;;;;;4967994;28;20031;-84
2020/12/28 07:38:49;;;;;;;25.98;5.13;;;18.20;99.90;;;;;;4947753;28;20396;-81
2020/12/28 07:41:18;;;;;;;26.55;5.07;;;18.00;99.90;;;;;;4941257;28;20028;-83
2020/12/28 07:43:52;;;;;;;21.10;3.90;;;18.00;99.90;;;;;;4973104;28;20011;-85
2020/12/28 07:46:29;;;;;;;;;;;17.90;99.90;;;;;;4968484;28;20559;-84
2020/12/28 07:49:13;;;;;;;20.80;3.67;;;17.90;99.90;;;;;;4945690;28;20290;-89
2020/12/28 07:51:41;;;;;;;23.70;4.28;;;17.80;99.90;;;;;;4973804;28;20034;-87
2020/12/28 07:54:22;;;;;;;28.42;4.30;;;17.90;99.90;;;;;;4949369;28;20126;-88
2020/12/28 07:56:57;;;;;;;26.77;4.70;;;18.10;99.90;;;;;;4963013;28;20023;-88
2020/12/28 07:59:40;;;;;;;22.60;4.00;;;18.00;99.90;;;;;;4976302;23;20051;-88
2020/12/28 08:02:28;;;;;;;20.02;3.55;;;17.90;99.90;;;;;;4947881;23;20055;-86
2020/12/28 08:05:00;;;;;;;28.30;4.45;;;18.00;99.90;;;;;;4951916;28;20520;-86
2020/12/28 08:07:33;;;;;;;19.70;3.40;;;18.10;99.90;;;;;;4973101;23;20063;-86
2020/12/28 08:10:00;;;;;;;28.92;4.93;;;18.20;99.90;;;;;;4971197;28;20035;-84
2020/12/28 08:12:31;;;;;;;24.70;4.30;;;18.20;99.90;;;;;;4972051;28;20018;-85
2020/12/28 08:14:58;;;;;;;19.13;3.72;;;18.30;99.90;;;;;;4989407;23;20046;-86
2020/12/28 08:17:29;;;;;;;27.15;4.45;;;18.30;99.90;;;;;;4951615;28;20063;-86
2020/12/28 08:20:11;;;;;;;26.90;4.82;;;18.30;99.90;;;;;;4968048;28;20074;-85
2020/12/28 08:22:40;;;;;;;27.67;4.20;;;18.30;99.90;;;;;;4965996;28;20027;-85
2020/12/28 08:25:10;;;;;;;27.17;3.97;;;18.10;99.90;;;;;;4954815;28;20111;-85
2020/12/28 08:27:37;;;;;;;25.65;4.55;;;18.20;99.90;;;;;;4967847;28;20035;-88
2020/12/28 08:30:11;;;;;;;21.60;4.88;;;18.30;99.90;;;;;;4968624;28;20022;-84
2020/12/28 08:32:39;;;;;;;24.50;4.90;;;18.20;99.90;;;;;;4999878;23;20054;-90
2020/12/28 08:35:07;;;;;;;20.20;5.32;;;18.20;99.90;;;;;;4978793;28;20114;-89
2020/12/28 08:37:34;;;;;;;25.20;6.13;;;18.40;99.90;;;;;;4976034;28;20443;-83
2020/12/28 08:40:02;;;;;;;25.38;3.88;;;18.30;99.90;;;;;;4995537;28;20030;-88
2020/12/28 08:42:33;;;;;;;32.85;5.32;;;18.30;99.90;;;;;;4981139;28;20026;-85
2020/12/28 08:45:02;;;;;;;23.40;3.95;;;18.40;99.90;;;;;;4977487;28;20031;-87
2020/12/28 08:47:30;;;;;;;24.45;4.97;;;18.50;99.90;;;;;;4995304;28;20022;-87
2020/12/28 08:49:57;;;;;;;26.83;4.72;;;18.50;99.90;;;;;;4995340;28;20076;-88
2020/12/28 08:52:25;;;;;;;30.77;6.65;;;18.50;99.90;;;;;;4985087;28;20023;-91
2020/12/28 08:54:59;;;;;;;22.95;4.30;;;18.50;99.90;;;;;;4959263;28;20034;-91
2020/12/28 08:57:31;;;;;;;20.50;4.60;;;18.50;99.90;;;;;;4975706;28;20027;-87
2020/12/28 09:00:00;;;;;;;24.67;4.45;;;18.40;99.90;;;;;;4975620;28;20031;-89
2020/12/28 09:02:28;;;;;;;28.08;4.78;;;18.50;99.90;;;;;;4984470;28;20031;-90
2020/12/28 09:04:56;;;;;;;22.73;3.47;;;18.40;99.90;;;;;;4991883;23;20047;-89
2020/12/28 09:07:24;;;;;;;27.75;4.38;;;18.40;99.90;;;;;;4975424;28;20031;-89
2020/12/28 09:09:52;;;;;;;27.05;4.40;;;18.30;99.90;;;;;;4956724;28;20041;-88
2020/12/28 09:12:20;;;;;;;23.83;3.58;;;18.30;99.90;;;;;;4955969;29;20117;-87
2020/12/28 09:14:47;;;;;;;24.15;3.30;;;18.30;99.90;;;;;;4956549;28;20042;-82
2020/12/28 09:17:15;;;;;;;24.48;3.65;;;18.30;99.90;;;;;;4973309;28;20026;-87
2020/12/28 09:19:42;;;;;;;20.02;3.97;;;18.30;99.90;;;;;;4973062;28;20518;-86
2020/12/28 09:22:09;;;;;;;22.75;4.80;;;18.30;99.90;;;;;;4970291;28;20038;-86
2020/12/28 09:24:37;;;;;;;25.63;5.72;;;18.30;99.90;;;;;;4975698;28;20105;-87
2020/12/28 09:27:04;;;;;;;24.95;4.70;;;18.40;99.90;;;;;;4968076;28;20031;-87
2020/12/28 09:29:31;;;;;;;21.90;3.85;;;18.40;99.90;;;;;;4974061;28;20026;-87
2020/12/28 09:31:59;;;;;;;22.50;3.90;;;18.40;99.90;;;;;;4955920;28;20030;-86
2020/12/28 09:34:26;;;;;;;27.10;6.10;;;18.30;99.90;;;;;;4938021;29;20054;-87
2020/12/28 09:37:04;;;;;;;18.58;4.03;;;18.30;99.90;;;;;;4968006;28;20023;-85
2020/12/28 09:39:32;;;;;;;24.00;4.63;;;18.30;99.90;;;;;;4956516;28;20514;-87
2020/12/28 09:42:00;;;;;;;24.38;4.80;;;18.40;99.90;;;;;;4968031;28;20551;-87
2020/12/28 09:44:29;;;;;;;22.88;4.38;;;18.40;99.90;;;;;;4973837;28;20030;-86
2020/12/28 09:46:57;;;;;;;30.42;6.13;;;18.30;99.90;;;;;;4974403;28;20094;-86
2020/12/28 09:49:25;;;;;;;22.65;4.25;;;18.30;99.90;;;;;;4974506;28;20492;-86
2020/12/28 09:51:55;;;;;;;28.13;5.93;;;18.30;99.90;;;;;;4969907;28;20050;-87
2020/12/28 09:54:23;;;;;;;24.75;4.35;;;18.30;99.90;;;;;;4974647;28;20034;-87
2020/12/28 09:56:51;;;;;;;24.40;5.13;;;18.20;99.90;;;;;;4973974;28;20027;-86
2020/12/28 09:59:18;;;;;;;30.55;4.20;;;18.10;99.90;;;;;;4956116;28;20035;-86
2020/12/28 10:01:46;;;;;;;26.95;4.18;;;18.00;99.90;;;;;;4967853;28;20027;-86
2020/12/28 10:04:14;;;;;;;27.30;5.07;;;18.00;99.90;;;;;;4975226;28;20114;-85
2020/12/28 10:06:41;;;;;;;32.78;4.32;;;17.90;99.90;;;;;;4988233;23;20055;-86
2020/12/28 10:09:10;;;;;;;25.83;3.85;;;18.00;99.90;;;;;;4989758;23;20062;-86
2020/12/28 10:11:38;;;;;;;28.65;4.63;;;18.00;99.90;;;;;;4966864;28;20542;-87
2020/12/28 10:14:06;;;;;;;28.17;4.70;;;18.00;99.90;;;;;;4992232;23;20054;-87
2020/12/28 10:16:33;;;;;;;30.50;4.63;;;18.10;99.90;;;;;;4976651;28;20157;-88
2020/12/28 10:19:01;;;;;;;28.23;3.63;;;18.10;99.90;;;;;;4966825;28;20062;-91
2020/12/28 10:23:55;;;;;;;23.63;4.55;;;17.90;99.90;;;;;;5000868;23;20050;-88
2020/12/28 10:26:26;;;;;;;24.15;4.65;;;17.90;99.90;;;;;;4991536;28;20053;-88
2020/12/28 10:28:55;;;;;;;25.38;3.40;;;17.80;99.90;;;;;;4984106;28;20523;-87
2020/12/28 10:31:23;;;;;;;22.88;3.97;;;17.80;99.90;;;;;;4992476;28;20027;-87
2020/12/28 10:33:51;;;;;;;23.38;3.60;;;17.80;99.90;;;;;;4975058;28;20415;-87
2020/12/28 10:36:21;;;;;;;27.05;4.47;;;17.80;99.90;;;;;;4975056;28;20121;-86
2020/12/28 10:38:50;;;;;;;22.02;4.30;;;17.90;99.90;;;;;;5003343;23;20047;-87
2020/12/28 10:41:28;;;;;;;25.65;3.83;;;17.90;99.90;;;;;;4973763;28;20019;-87
2020/12/28 10:43:56;;;;;;;26.15;4.03;;;17.80;99.90;;;;;;4973077;28;20122;-86
2020/12/28 10:46:24;;;;;;;26.02;5.07;;;17.80;99.90;;;;;;4965238;28;20038;-87
2020/12/28 10:48:52;;;;;;;23.38;4.68;;;17.70;99.90;;;;;;4962720;28;20126;-86
2020/12/28 10:51:19;;;;;;;20.25;4.22;;;17.70;99.90;;;;;;4967643;28;20099;-86
2020/12/28 10:53:47;;;;;;;20.95;3.63;;;17.70;99.90;;;;;;4970451;28;20039;-87
2020/12/28 10:56:21;;;;;;;31.35;4.32;;;17.60;99.90;;;;;;4970577;28;20022;-87
2020/12/28 10:58:48;;;;;;;27.52;4.90;;;17.70;99.90;;;;;;4972432;28;20081;-87
2020/12/28 11:01:16;;;;;;;25.17;4.00;;;17.70;99.90;;;;;;4973383;28;20050;-86
2020/12/28 11:03:43;;;;;;;22.95;3.70;;;17.60;99.90;;;;;;4971915;28;20106;-88
2020/12/28 11:06:10;;;;;;;24.63;3.95;;;17.50;99.90;;;;;;4962319;28;20106;-86
2020/12/28 11:08:38;;;;;;;32.88;4.45;;;17.50;99.90;;;;;;4961168;28;20034;-85
2020/12/28 11:11:06;;;;;;;27.58;4.60;;;17.50;99.90;;;;;;4972708;28;20023;-86
2020/12/28 11:13:33;;;;;;;25.77;3.58;;;17.60;99.90;;;;;;4980676;23;20074;-86
2020/12/28 11:16:00;;;;;;;23.05;3.78;;;17.60;99.90;;;;;;4967388;28;20511;-85
2020/12/28 11:18:27;;;;;;;23.50;4.00;;;17.70;99.90;;;;;;4972616;28;20484;-85
2020/12/28 11:20:55;;;;;;;19.55;2.60;;;17.50;99.90;;;;;;4973151;28;20054;-85
2020/12/28 11:23:22;;;;;;;26.17;4.47;;;17.60;99.90;;;;;;4972278;28;20110;-86
2020/12/28 11:25:49;;;;;;;24.50;3.63;;;17.70;99.90;;;;;;4966575;28;20050;-86
2020/12/28 11:28:17;;;;;;;20.38;4.15;;;17.60;99.90;;;;;;4971413;28;20039;-84
2020/12/28 11:30:46;;;;;;;17.98;3.17;;;17.60;99.90;;;;;;4953743;28;20051;-85
2020/12/28 11:33:13;;;;;;;23.45;3.70;;;17.70;99.90;;;;;;4936652;28;20122;-85
2020/12/28 11:35:40;;;;;;;22.85;3.33;;;17.70;99.90;;;;;;4957633;28;20023;-85
2020/12/28 11:38:07;;;;;;;18.42;3.65;;;17.80;99.90;;;;;;4972429;28;20039;-85
2020/12/28 11:40:35;;;;;;;15.70;2.60;;;17.80;99.90;;;;;;4973042;28;20455;-85
2020/12/28 11:43:02;;;;;;;18.70;4.05;;;17.80;99.90;;;;;;4972873;28;20039;-85
2020/12/28 11:45:29;;;;;;;23.58;4.43;;;17.90;99.90;;;;;;4968428;28;20019;-85
2020/12/28 11:47:56;;;;;;;17.02;4.55;;;17.90;99.90;;;;;;4972297;28;20523;-85
2020/12/28 11:50:24;;;;;;;18.88;4.90;;;17.80;99.90;;;;;;4972102;28;20045;-85
2020/12/28 11:52:51;;;;;;;22.67;4.18;;;17.70;99.90;;;;;;4972449;28;20054;-85
2020/12/28 11:55:18;;;;;;;23.98;4.82;;;17.70;99.90;;;;;;4968312;28;20166;-84
2020/12/28 11:57:46;;;;;;;25.50;4.25;;;17.60;99.90;;;;;;4970019;28;20031;-86
2020/12/28 12:00:13;;;;;;;25.75;4.60;;;17.60;99.90;;;;;;4974943;28;20023;-84
2020/12/28 12:02:40;;;;;;;20.52;3.38;;;17.50;99.90;;;;;;4970916;28;20031;-84
2020/12/28 12:05:07;;;;;;;19.73;4.20;;;17.40;99.90;;;;;;4956441;28;20081;-85
2020/12/28 12:07:35;;;;;;;20.95;4.60;;;17.40;99.90;;;;;;4970741;28;20097;-84
2020/12/28 12:10:02;;;;;;;18.90;3.58;;;17.40;99.90;;;;;;4973737;28;20046;-84
2020/12/28 12:12:29;;;;;;;23.73;3.55;;;17.40;99.90;;;;;;4994387;23;20523;-85
2020/12/28 12:14:57;;;;;;;21.48;3.00;;;17.50;99.90;;;;;;4982677;23;20043;-84
2020/12/28 12:17:24;;;;;;;19.92;4.38;;;17.50;99.90;;;;;;4981510;23;20140;-84
2020/12/28 12:19:51;;;;;;;24.60;3.30;;;17.40;99.90;;;;;;4975947;28;20027;-84
2020/12/28 12:22:18;;;;;;;20.52;3.35;;;17.40;99.90;;;;;;5001745;23;20415;-84
2020/12/28 12:24:46;;;;;;;15.77;3.78;;;17.40;99.90;;;;;;4981919;28;20082;-83
2020/12/28 12:27:13;;;;;;;23.02;5.20;;;17.40;99.90;;;;;;4991304;28;20031;-83
2020/12/28 12:29:40;;;;;;;19.73;4.88;;;17.40;99.90;;;;;;5032539;23;20142;-83
2020/12/28 12:32:08;;;;;;;25.65;5.00;;;17.50;99.90;;;;;;4958752;28;20034;-85
2020/12/28 12:34:35;;;;;;;19.08;4.00;;;17.40;99.90;;;;;;4976210;28;20019;-84
2020/12/28 12:37:02;;;;;;;18.42;4.30;;;17.30;99.90;;;;;;4969169;28;20031;-83
2020/12/28 12:39:29;;;;;;;20.30;3.65;;;17.40;99.90;;;;;;4969580;28;20066;-83
2020/12/28 12:41:56;;;;;;;24.77;3.83;;;17.30;99.90;;;;;;4971835;28;20443;-83
2020/12/28 12:44:24;;;;;;;23.50;5.13;;;17.20;99.90;;;;;;4975809;28;20027;-83
2020/12/28 12:46:51;;;;;;;15.80;3.25;;;17.20;99.90;;;;;;4968275;23;20055;-83